Time;durP1;ratioP1;P1;durP2;ratioP2;P2;SDS_P1;SDS_P2;PMS_P1;PMS_P2;Temp;Humidity;BMP_temperature;BMP_pressure;BME280_temperature;BME280_humidity;BME280_pressure;Samples;Min_cycle;Max_cycle;Signal;HPM_P1;HPM_P2
2023/08/15 00:00:47;;;;;;;13.98;3.83;;;22.40;99.90;;;21.77;83.49;101073.94;4922585;28;20121;-78
2023/08/15 00:03:13;;;;;;;11.98;4.30;;;22.50;99.90;;;21.78;83.26;101064.88;4935123;28;20455;-78
2023/08/15 00:05:38;;;;;;;34.50;4.40;;;22.50;99.90;;;21.82;83.36;101073.50;4925034;28;20058;-78
2023/08/15 00:08:04;;;;;;;14.30;4.55;;;22.50;99.90;;;21.80;83.02;101075.47;4959408;28;20147;-78
2023/08/15 00:10:37;;;;;;;12.73;4.25;;;22.40;99.90;;;21.75;84.18;101077.69;4956882;28;20030;-79
2023/08/15 00:13:03;;;;;;;8.27;4.65;;;22.40;99.90;;;21.59;85.36;101070.19;4907127;28;20034;-79
2023/08/15 00:15:32;;;;;;;11.63;4.90;;;22.40;99.90;;;21.60;85.54;101064.69;4908487;28;20142;-79
2023/08/15 00:17:58;;;;;;;10.98;4.35;;;22.30;99.90;;;21.61;85.58;101065.53;4920603;28;20056;-80
2023/08/15 00:20:29;;;;;;;10.57;4.78;;;22.30;99.90;;;21.64;85.39;101075.97;4935348;28;20037;-78
2023/08/15 00:22:54;;;;;;;17.42;4.63;;;22.30;99.90;;;21.62;85.28;101075.25;4935632;28;20046;-78
2023/08/15 00:25:20;;;;;;;12.57;4.55;;;22.30;99.90;;;21.61;85.80;101076.25;4885633;28;20043;-78
2023/08/15 00:27:46;;;;;;;13.65;4.50;;;22.30;99.90;;;21.56;85.81;101076.66;4904587;28;20037;-77
2023/08/15 00:30:12;;;;;;;8.15;4.57;;;22.30;99.90;;;21.55;86.30;101076.78;4920899;28;20049;-78
2023/08/15 00:32:37;;;;;;;11.75;4.78;;;22.30;99.90;;;21.49;86.88;101087.06;4915918;28;20053;-78
2023/08/15 00:35:08;;;;;;;13.48;4.68;;;22.20;99.90;;;21.40;87.41;101084.28;4948730;28;20034;-78
2023/08/15 00:37:34;;;;;;;9.07;4.38;;;22.20;99.90;;;21.35;87.79;101087.38;4927380;28;20022;-78
2023/08/15 00:40:01;;;;;;;8.95;4.22;;;22.10;99.90;;;21.33;87.56;101086.66;4932662;28;20240;-78
2023/08/15 00:42:27;;;;;;;16.05;4.65;;;22.10;99.90;;;21.29;87.48;101087.91;4919127;28;20060;-78
2023/08/15 00:44:53;;;;;;;8.20;4.60;;;22.10;99.90;;;21.25;87.58;101095.38;4929793;28;20042;-78
2023/08/15 00:47:24;;;;;;;10.70;4.40;;;22.00;99.90;;;21.23;87.39;101088.41;4941719;28;20058;-78
2023/08/15 00:49:52;;;;;;;7.15;4.30;;;22.00;99.90;;;21.20;88.20;101084.19;4933564;28;20522;-79
2023/08/15 00:52:18;;;;;;;14.30;4.43;;;22.00;99.90;;;21.15;88.31;101081.06;4916183;28;20034;-78
2023/08/15 00:54:55;;;;;;;11.02;4.72;;;21.90;99.90;;;21.16;88.17;101087.25;4916863;28;20050;-78
2023/08/15 00:57:22;;;;;;;11.95;4.55;;;22.00;99.90;;;21.17;88.07;101080.94;4904437;28;20043;-77
2023/08/15 00:59:48;;;;;;;10.00;4.40;;;21.90;99.90;;;21.21;87.78;101082.34;4915877;28;20517;-78
2023/08/15 01:02:19;;;;;;;12.38;4.38;;;21.90;99.90;;;21.23;88.39;101083.94;4923423;28;20045;-78
2023/08/15 01:04:45;;;;;;;13.27;4.43;;;21.90;99.90;;;21.25;87.53;101090.00;4917620;28;20042;-78
2023/08/15 01:07:11;;;;;;;12.30;4.38;;;21.90;99.90;;;21.22;87.44;101090.25;4943422;28;20088;-78
2023/08/15 01:09:37;;;;;;;11.23;3.85;;;21.90;99.90;;;21.24;87.31;101085.63;4910130;28;20046;-78
2023/08/15 01:13:06;;;;;;;8.45;4.22;;;22.00;99.90;;;21.17;88.18;101075.59;4930522;28;20086;-78
2023/08/15 01:15:41;;;;;;;10.93;4.53;;;21.90;99.90;;;21.18;87.73;101085.28;4950471;28;20039;-78
2023/08/15 01:18:17;;;;;;;10.10;4.30;;;21.90;99.90;;;21.19;87.49;101081.66;4928565;28;20034;-78
2023/08/15 01:20:46;;;;;;;11.38;4.38;;;21.90;99.90;;;21.19;87.67;101087.00;4919856;28;20043;-78
2023/08/15 01:23:14;;;;;;;16.10;4.50;;;21.90;99.90;;;21.22;87.38;101095.59;4941524;28;20059;-78
2023/08/15 01:25:41;;;;;;;10.90;4.15;;;22.00;99.90;;;21.26;86.92;101085.50;4936647;28;20655;-78
2023/08/15 01:28:14;;;;;;;13.27;4.10;;;22.00;99.90;;;21.25;87.00;101078.41;4908858;28;20201;-78
2023/08/15 01:31:13;;;;;;;12.90;4.18;;;22.00;99.90;;;21.25;87.15;101091.81;4932056;28;20038;-77
2023/08/15 01:34:17;;;;;;;9.25;4.05;;;21.90;99.90;;;21.24;86.86;101074.91;4937518;28;20153;-78
2023/08/15 01:37:08;;;;;;;7.75;4.13;;;21.90;99.90;;;21.25;86.90;101081.97;4920669;28;20066;-78
2023/08/15 01:39:39;;;;;;;9.70;4.05;;;21.90;99.90;;;21.21;86.89;101077.84;4928598;28;20118;-78
2023/08/15 01:42:06;;;;;;;9.45;4.40;;;21.90;99.90;;;21.21;86.87;101074.31;4940333;28;20046;-78
2023/08/15 01:44:33;;;;;;;7.40;4.03;;;21.90;99.90;;;21.18;86.98;101079.94;4926166;28;24421;-78
2023/08/15 01:46:59;;;;;;;10.32;4.05;;;21.90;99.90;;;21.15;87.39;101085.56;4889178;28;20043;-78
2023/08/15 01:49:25;;;;;;;8.52;3.55;;;21.80;99.90;;;21.11;87.91;101093.00;4905328;28;20042;-78
2023/08/15 01:52:00;;;;;;;9.63;4.18;;;21.90;99.90;;;21.09;88.40;101087.78;4960550;28;20121;-78
2023/08/15 01:54:26;;;;;;;26.10;4.53;;;21.80;99.90;;;21.08;88.31;101079.91;4913520;28;20046;-78
2023/08/15 01:56:52;;;;;;;10.07;3.55;;;21.80;99.90;;;21.10;88.55;101089.50;4917957;28;20041;-78
2023/08/15 01:59:27;;;;;;;7.47;3.75;;;21.80;99.90;;;21.13;88.50;101087.53;4912200;28;20100;-79
2023/08/15 02:01:53;;;;;;;6.80;3.38;;;21.80;99.90;;;21.11;88.47;101084.97;4919371;28;20038;-77
2023/08/15 02:04:19;;;;;;;7.10;3.78;;;21.80;99.90;;;21.10;88.44;101092.16;4901852;28;20122;-79
2023/08/15 02:06:45;;;;;;;7.43;3.90;;;21.80;99.90;;;21.09;88.81;101101.16;4932795;28;20034;-78
2023/08/15 02:09:15;;;;;;;12.02;3.88;;;21.80;99.90;;;21.07;89.13;101103.13;4922912;28;20041;-78
2023/08/15 02:11:41;;;;;;;8.52;3.90;;;21.80;99.90;;;21.10;88.97;101104.69;4933173;28;20023;-78
2023/08/15 02:14:07;;;;;;;8.85;3.85;;;21.90;99.90;;;21.08;89.37;101094.13;4895802;28;20055;-78
2023/08/15 02:16:33;;;;;;;14.32;4.03;;;21.90;99.90;;;21.09;89.30;101092.28;4908334;28;20141;-77
2023/08/15 02:18:59;;;;;;;13.10;4.20;;;21.80;99.90;;;21.04;89.88;101089.16;4907673;28;20035;-78
2023/08/15 02:21:25;;;;;;;9.32;3.97;;;21.80;99.90;;;21.02;90.44;101099.16;4935614;28;20080;-77
2023/08/15 02:23:58;;;;;;;8.23;3.78;;;21.80;99.90;;;20.99;90.98;101089.56;4919383;28;20105;-79
2023/08/15 02:26:24;;;;;;;8.07;3.97;;;21.80;99.90;;;21.01;91.43;101098.28;4947894;28;20715;-78
2023/08/15 02:28:50;;;;;;;11.93;4.10;;;21.80;99.90;;;21.03;91.25;101082.94;4931315;28;20030;-78
2023/08/15 02:31:15;;;;;;;9.15;4.07;;;21.80;99.90;;;21.06;91.08;101065.78;4925579;28;20782;-78
2023/08/15 02:33:41;;;;;;;7.10;3.58;;;21.80;99.90;;;21.12;90.29;101053.69;4924830;28;20122;-78
2023/08/15 02:36:16;;;;;;;12.95;3.63;;;21.80;99.90;;;21.09;90.28;101070.88;4914134;28;20077;-78
2023/08/15 02:38:42;;;;;;;9.38;4.18;;;21.80;99.90;;;21.09;90.77;101066.34;4905720;28;20038;-79
2023/08/15 02:41:07;;;;;;;9.07;3.25;;;21.80;99.90;;;21.12;90.34;101067.06;4929235;28;20061;-78
2023/08/15 02:43:33;;;;;;;11.13;3.58;;;21.80;99.90;;;21.14;89.98;101075.81;4893759;28;20495;-78
2023/08/15 02:46:04;;;;;;;10.13;3.78;;;21.80;99.90;;;21.13;90.02;101069.63;4914766;28;20106;-78
2023/08/15 02:48:30;;;;;;;5.78;3.67;;;21.80;99.90;;;21.13;89.73;101061.59;4910482;28;20027;-78
2023/08/15 02:50:56;;;;;;;8.57;3.67;;;21.70;99.90;;;21.14;89.67;101057.09;4920412;28;20034;-78
2023/08/15 02:53:21;;;;;;;8.98;3.65;;;21.70;99.90;;;21.13;89.74;101056.25;4885604;28;20141;-78
2023/08/15 02:55:53;;;;;;;7.15;3.70;;;21.70;99.90;;;21.10;90.61;101043.97;4925242;28;20102;-77
2023/08/15 02:58:21;;;;;;;7.90;3.55;;;21.70;99.90;;;21.05;91.59;101048.84;4900651;28;20064;-78
2023/08/15 03:00:47;;;;;;;7.47;3.70;;;21.70;99.90;;;21.03;91.45;101045.47;4929374;28;20422;-78
2023/08/15 03:03:12;;;;;;;11.30;4.03;;;21.70;99.90;;;20.99;92.80;101038.69;4908471;28;20050;-78
2023/08/15 03:05:39;;;;;;;9.55;3.90;;;21.70;99.90;;;21.00;92.35;101047.56;4902110;28;20077;-78
2023/08/15 03:08:05;;;;;;;5.97;3.30;;;21.70;99.90;;;21.01;92.55;101034.03;4917193;28;20034;-78
2023/08/15 03:10:36;;;;;;;7.18;3.80;;;21.60;99.90;;;20.99;93.26;101024.44;4912565;28;20154;-79
2023/08/15 03:13:03;;;;;;;5.78;3.72;;;21.70;99.90;;;20.99;92.94;101038.69;4921916;28;20046;-78
2023/08/15 03:15:29;;;;;;;7.88;4.03;;;21.60;99.90;;;20.91;94.49;101033.16;4887936;28;20034;-78
2023/08/15 03:17:56;;;;;;;7.43;4.18;;;21.60;99.90;;;20.94;94.62;101038.22;4913800;28;20040;-78
2023/08/15 03:20:25;;;;;;;10.90;4.18;;;21.70;99.90;;;20.93;94.86;101046.38;4921000;28;20141;-78
2023/08/15 03:22:51;;;;;;;7.43;4.32;;;21.70;99.90;;;20.93;94.85;101049.06;4910032;28;20073;-78
2023/08/15 03:25:17;;;;;;;5.97;3.53;;;21.70;99.90;;;20.95;95.12;101055.13;4905540;28;20262;-78
2023/08/15 03:27:43;;;;;;;10.23;4.25;;;21.70;99.90;;;21.03;94.14;101047.28;4915184;28;20121;-78
2023/08/15 03:30:09;;;;;;;7.10;3.85;;;21.70;99.90;;;21.06;93.93;101034.50;4923612;28;20034;-78
2023/08/15 03:32:35;;;;;;;5.93;4.10;;;21.80;99.90;;;21.08;93.45;101034.38;4947455;28;20047;-78
2023/08/15 03:35:01;;;;;;;5.32;3.63;;;21.70;99.90;;;21.09;92.77;101039.59;4941198;28;20036;-79
2023/08/15 03:37:35;;;;;;;6.00;3.90;;;21.70;99.90;;;21.07;92.69;101041.53;4966589;28;20121;-78
2023/08/15 03:40:03;;;;;;;16.15;4.10;;;21.60;99.90;;;21.04;93.13;101040.97;4951439;28;20050;-78
2023/08/15 03:42:29;;;;;;;5.10;3.63;;;21.70;99.90;;;21.00;92.90;101039.53;4921235;28;20419;-79
2023/08/15 03:44:57;;;;;;;8.35;3.80;;;21.70;99.90;;;20.95;93.43;101050.66;4944434;28;20169;-78
2023/08/15 03:47:23;;;;;;;6.22;4.53;;;21.60;99.90;;;20.91;93.96;101051.88;4910516;28;20114;-79
2023/08/15 03:49:49;;;;;;;9.15;4.43;;;21.60;99.90;;;20.83;94.89;101049.84;4934515;28;20107;-78
2023/08/15 03:52:14;;;;;;;6.82;4.40;;;21.50;99.90;;;20.77;95.73;101050.34;4930488;28;20190;-79
2023/08/15 03:54:40;;;;;;;7.75;4.20;;;21.50;99.90;;;20.69;96.55;101067.06;4915190;28;20035;-78
2023/08/15 03:57:06;;;;;;;10.23;4.40;;;21.50;99.90;;;20.71;96.94;101058.91;4907168;28;20105;-77
2023/08/15 03:59:32;;;;;;;6.43;4.25;;;21.40;99.90;;;20.66;97.34;101053.09;4924723;28;20026;-78
2023/08/15 04:01:57;;;;;;;9.32;4.78;;;21.40;99.90;;;20.61;98.10;101058.00;4924660;28;20043;-78
2023/08/15 04:04:32;;;;;;;5.63;4.35;;;21.40;99.90;;;20.60;98.60;101050.94;4922891;28;20038;-77
2023/08/15 04:06:59;;;;;;;11.25;4.00;;;21.40;99.90;;;20.59;98.71;101063.47;4930736;28;20026;-78
2023/08/15 04:09:24;;;;;;;11.43;4.47;;;21.30;99.90;;;20.51;99.95;101055.19;4948202;28;20068;-78
2023/08/15 04:11:52;;;;;;;11.07;5.00;;;21.30;99.90;;;20.49;100.00;101054.47;4953427;28;20042;-79
2023/08/15 04:14:20;;;;;;;11.93;4.20;;;21.30;99.90;;;20.53;100.00;101053.25;4892928;28;20446;-78
2023/08/15 04:16:46;;;;;;;6.38;3.97;;;21.30;99.90;;;20.55;100.00;101048.63;4906831;28;20043;-78
2023/08/15 04:19:12;;;;;;;12.65;4.60;;;21.30;99.90;;;20.56;100.00;101049.47;4899098;28;21241;-78
2023/08/15 04:21:38;;;;;;;8.00;4.35;;;21.30;99.90;;;20.55;100.00;101050.44;4935475;28;20126;-78
2023/08/15 04:24:04;;;;;;;8.93;4.85;;;21.30;99.90;;;20.60;100.00;101048.25;4897940;28;20130;-78
2023/08/15 04:26:30;;;;;;;9.82;4.88;;;21.30;99.90;;;20.62;100.00;101055.16;4915774;28;20038;-78
2023/08/15 04:29:03;;;;;;;10.02;5.00;;;21.30;99.90;;;20.64;100.00;101050.53;4907694;28;20067;-78
2023/08/15 04:31:29;;;;;;;6.50;4.80;;;21.40;99.90;;;20.65;100.00;101054.94;4934614;28;20088;-78
2023/08/15 04:33:55;;;;;;;9.23;5.07;;;21.40;99.90;;;20.62;100.00;101060.53;4904071;28;20046;-78
2023/08/15 04:36:21;;;;;;;7.90;4.50;;;21.40;99.90;;;20.67;100.00;101062.84;4945575;28;20114;-78
2023/08/15 04:38:54;;;;;;;11.43;5.15;;;21.40;99.90;;;20.74;100.00;101063.16;4921005;28;20105;-79
2023/08/15 04:41:19;;;;;;;11.50;4.97;;;21.40;99.90;;;20.75;100.00;101067.53;4946737;28;20109;-78
2023/08/15 04:43:45;;;;;;;10.07;4.85;;;21.50;99.90;;;20.81;100.00;101072.38;4894890;28;20042;-78
2023/08/15 04:46:11;;;;;;;12.90;5.10;;;21.50;99.90;;;20.85;99.86;101071.13;4889073;28;20054;-78
2023/08/15 04:48:37;;;;;;;7.55;5.20;;;21.50;99.90;;;20.94;99.72;101061.47;4933232;28;20077;-78
2023/08/15 04:51:05;;;;;;;11.98;4.78;;;21.60;99.90;;;20.98;99.48;101071.78;4949557;28;20141;-79
2023/08/15 04:53:34;;;;;;;14.07;4.90;;;21.60;99.90;;;21.06;99.00;101066.63;4934391;28;20066;-78
2023/08/15 04:55:59;;;;;;;22.80;5.45;;;21.70;99.90;;;21.12;98.48;101070.59;4917911;28;20057;-78
2023/08/15 04:58:25;;;;;;;11.18;4.80;;;21.70;99.90;;;21.18;98.37;101078.09;4897147;28;20117;-78
2023/08/15 05:00:51;;;;;;;5.50;4.38;;;21.80;99.90;;;21.30;97.33;101076.22;4936901;28;20037;-78
2023/08/15 05:03:17;;;;;;;7.75;4.45;;;21.90;99.90;;;21.41;96.71;101083.31;4902664;28;20052;-78
2023/08/15 05:05:48;;;;;;;7.95;4.25;;;22.00;99.90;;;21.92;94.22;101094.00;4945722;28;20077;-79
2023/08/15 05:08:13;;;;;;;6.10;4.53;;;22.30;99.90;;;22.17;91.17;101090.97;4932700;28;20046;-78
2023/08/15 05:10:39;;;;;;;6.57;4.03;;;22.40;99.90;;;22.28;90.47;101091.69;4911652;28;20034;-78
2023/08/15 05:13:05;;;;;;;8.68;4.40;;;22.60;99.90;;;22.49;88.25;101090.75;4916920;28;20157;-78
2023/08/15 05:15:31;;;;;;;6.80;4.60;;;22.80;99.90;;;23.16;86.38;101101.63;4946724;28;20064;-78
2023/08/15 05:17:56;;;;;;;6.70;4.30;;;23.30;99.90;;;24.65;78.79;101101.50;4919007;28;20121;-78
2023/08/15 05:20:31;;;;;;;8.45;4.57;;;23.60;99.90;;;24.07;79.32;101102.72;4921243;28;20045;-78
2023/08/15 05:22:56;;;;;;;10.45;4.82;;;24.00;99.90;;;25.10;75.50;101108.59;4936472;28;20042;-78
2023/08/15 05:25:22;;;;;;;5.45;3.95;;;24.60;99.90;;;26.48;71.00;101122.09;4936507;28;20037;-78
2023/08/15 05:27:50;;;;;;;5.88;4.07;;;25.10;99.90;;;26.70;68.82;101115.25;4908293;28;20212;-78
2023/08/15 05:30:18;;;;;;;6.10;3.88;;;25.30;99.90;;;26.35;69.62;101107.25;4907394;28;20034;-79
2023/08/15 05:32:44;;;;;;;8.18;4.20;;;25.80;99.90;;;28.79;63.76;101132.19;4911442;28;20425;-78
2023/08/15 05:35:10;;;;;;;6.75;3.90;;;26.80;99.90;;;31.09;57.38;101152.03;4942242;28;20122;-78
2023/08/15 05:37:36;;;;;;;11.82;4.13;;;28.10;99.90;;;32.35;53.58;101168.28;4897323;28;20046;-78
2023/08/15 05:40:03;;;;;;;6.03;3.35;;;29.00;99.90;;;33.26;52.24;101164.28;4912300;28;20067;-79
2023/08/15 05:42:29;;;;;;;4.68;3.60;;;29.40;99.90;;;31.76;53.82;101156.06;4949196;28;20069;-79
2023/08/15 05:45:00;;;;;;;7.55;3.47;;;29.90;99.90;;;33.94;49.96;101169.44;4924165;28;20086;-79
2023/08/15 05:47:26;;;;;;;7.95;3.33;;;30.70;99.90;;;35.51;46.77;101199.81;4920120;28;20038;-78
2023/08/15 05:49:52;;;;;;;7.13;2.83;;;31.70;99.90;;;36.82;44.23;101207.75;4926829;28;20646;-79
2023/08/15 05:52:17;;;;;;;6.30;2.72;;;32.60;99.90;;;37.35;42.85;101222.56;4918647;28;20037;-78
2023/08/15 05:54:43;;;;;;;10.45;2.95;;;33.20;99.90;;;37.58;41.86;101234.66;4915714;28;20510;-79
2023/08/15 05:57:09;;;;;;;4.55;2.63;;;33.70;99.90;;;37.94;40.76;101239.03;4925127;28;20057;-79
2023/08/15 05:59:40;;;;;;;5.03;2.70;;;34.20;99.90;;;38.53;40.13;101256.28;4927998;28;20046;-79
2023/08/15 06:02:06;;;;;;;3.03;2.40;;;34.50;98.50;;;38.81;39.49;101260.09;4930713;28;20036;-78
2023/08/15 06:04:31;;;;;;;9.98;2.70;;;34.70;97.50;;;38.45;39.58;101245.66;4907881;28;20156;-79
2023/08/15 06:06:57;;;;;;;3.75;2.42;;;34.70;97.20;;;38.05;39.71;101249.22;4919992;28;20114;-78
2023/08/15 06:09:23;;;;;;;5.40;2.65;;;35.00;97.70;;;38.97;39.00;101267.59;4894511;28;20022;-79
2023/08/15 06:11:57;;;;;;;6.53;2.47;;;35.50;97.80;;;40.05;36.97;101283.09;4945807;28;20033;-80
2023/08/15 06:14:23;;;;;;;6.28;2.35;;;36.20;96.50;;;40.85;36.38;101283.53;4918380;28;20496;-78
2023/08/15 06:16:48;;;;;;;5.82;2.55;;;36.60;95.20;;;40.86;35.42;101287.97;4946266;28;20109;-79
2023/08/15 06:19:14;;;;;;;5.95;2.10;;;37.40;95.10;;;41.96;34.50;101294.94;4902184;28;20498;-79
2023/08/15 06:21:51;;;;;;;6.90;2.30;;;37.80;93.10;;;41.68;34.09;101287.88;4911333;28;20038;-79
2023/08/15 06:24:17;;;;;;;6.28;2.10;;;38.20;93.10;;;41.96;33.97;101284.72;4930564;28;20419;-79
2023/08/15 06:26:42;;;;;;;6.15;1.80;;;38.30;91.00;;;41.03;34.27;101287.03;4926706;28;20061;-79
2023/08/15 06:29:08;;;;;;;2.83;1.65;;;38.20;91.30;;;40.91;34.72;101285.28;4892841;28;20047;-79
2023/08/15 06:31:42;;;;;;;3.72;1.77;;;38.30;91.10;;;41.49;33.95;101290.19;4944648;28;20049;-79
2023/08/15 06:34:08;;;;;;;3.38;1.80;;;38.80;90.70;;;41.78;33.48;101290.69;4933217;28;20030;-79
2023/08/15 06:36:34;;;;;;;2.70;1.77;;;39.30;90.70;;;42.26;32.74;101297.06;4938745;28;20023;-79
2023/08/15 06:39:00;;;;;;;4.50;1.88;;;39.50;89.60;;;41.88;32.97;101287.16;4940757;28;20398;-79
2023/08/15 06:41:28;;;;;;;1.88;1.40;;;39.60;89.00;;;41.53;33.39;101274.75;4900659;28;20093;-78
2023/08/15 06:43:56;;;;;;;4.25;1.90;;;39.20;87.80;;;40.69;34.77;101270.63;4927363;28;20035;-79
2023/08/15 06:46:22;;;;;;;3.13;1.48;;;39.40;89.70;;;41.58;34.14;101272.06;4927453;28;20034;-79
2023/08/15 06:48:48;;;;;;;3.15;1.50;;;39.60;88.60;;;41.71;33.27;101274.34;4940404;28;20078;-79
2023/08/15 06:51:14;;;;;;;3.40;1.60;;;39.60;87.00;;;41.42;33.39;101265.53;4920811;28;20057;-79
2023/08/15 06:53:49;;;;;;;5.00;1.45;;;40.00;86.90;;;41.68;33.51;101265.75;4928947;28;20503;-79
2023/08/15 06:56:15;;;;;;;2.90;1.23;;;40.30;85.50;;;41.73;33.35;101258.34;4914380;28;20125;-80
2023/08/15 06:58:41;;;;;;;2.70;1.50;;;40.60;85.10;;;41.89;32.31;101255.66;4927300;28;20496;-81
2023/08/15 07:01:07;;;;;;;6.32;1.73;;;40.70;83.60;;;41.71;32.71;101256.91;4941554;28;20129;-79
2023/08/15 07:03:33;;;;;;;1.90;1.17;;;40.60;84.10;;;41.64;33.25;101242.50;4931718;28;20563;-80
2023/08/15 07:06:05;;;;;;;4.25;1.35;;;40.70;83.60;;;41.79;32.82;101250.88;4884991;28;20105;-80
2023/08/15 07:08:31;;;;;;;4.85;1.20;;;40.60;82.40;;;40.93;33.86;101240.81;4964620;28;20050;-80
2023/08/15 07:10:58;;;;;;;2.00;1.30;;;40.40;82.40;;;40.98;33.46;101235.34;4929985;28;20037;-79
2023/08/15 07:13:25;;;;;;;4.13;1.55;;;40.50;81.40;;;40.71;34.28;101232.56;4929080;28;20031;-79
2023/08/15 07:15:57;;;;;;;3.13;1.48;;;40.70;83.80;;;41.64;33.17;101237.81;4918504;28;20034;-79
2023/08/15 07:18:23;;;;;;;4.43;1.40;;;40.70;82.40;;;41.33;33.89;101236.75;4936584;28;20041;-79
2023/08/15 07:20:51;;;;;;;3.10;1.30;;;40.80;81.90;;;41.30;33.30;101240.88;4962075;28;20070;-79
2023/08/15 07:23:18;;;;;;;1.98;1.25;;;40.90;80.90;;;40.30;34.30;101229.38;4958462;28;20047;-78
2023/08/15 07:25:49;;;;;;;2.00;1.40;;;40.80;81.30;;;41.02;33.47;101230.09;4935131;28;20030;-80
2023/08/15 07:28:14;;;;;;;2.67;1.40;;;40.60;80.10;;;40.39;34.21;101211.25;4932844;28;20118;-79
2023/08/15 07:30:45;;;;;;;3.20;1.50;;;40.70;82.20;;;41.06;33.96;101215.53;4910346;28;20047;-79
2023/08/15 07:33:16;;;;;;;2.33;1.27;;;41.00;81.50;;;41.34;33.55;101211.63;4947138;28;20042;-79
2023/08/15 07:35:42;;;;;;;1.92;1.48;;;41.20;80.70;;;41.04;33.72;101206.69;4909138;28;20045;-79
2023/08/15 07:38:08;;;;;;;6.80;1.45;;;41.20;81.00;;;41.19;34.09;101208.72;4935788;28;20042;-79
2023/08/15 07:40:34;;;;;;;6.40;1.38;;;41.00;81.00;;;41.09;34.21;101203.13;4922752;28;20474;-80
2023/08/15 07:43:00;;;;;;;6.53;1.50;;;41.20;82.80;;;41.32;34.15;101201.91;4932471;28;20039;-80
2023/08/15 07:45:32;;;;;;;6.03;1.55;;;41.30;81.60;;;40.77;33.95;101190.16;4943693;28;20088;-80
2023/08/15 07:47:58;;;;;;;3.25;1.38;;;41.30;81.40;;;40.84;34.76;101193.53;4944841;28;20136;-79
2023/08/15 07:50:27;;;;;;;9.60;1.50;;;41.30;81.20;;;41.16;34.90;101179.72;4931014;28;20427;-79
2023/08/15 07:53:02;;;;;;;7.57;1.63;;;41.40;79.60;;;41.36;33.95;101187.34;4919841;28;20118;-79
2023/08/15 07:55:30;;;;;;;2.42;1.27;;;41.50;79.70;;;41.05;33.59;101190.94;4946771;28;20430;-79
2023/08/15 07:57:56;;;;;;;5.60;1.58;;;41.40;78.50;;;40.84;34.60;101182.47;4914515;28;20089;-78
2023/08/15 08:00:29;;;;;;;3.50;1.45;;;41.40;81.30;;;40.87;34.80;101170.09;4931417;28;20105;-80
2023/08/15 08:02:59;;;;;;;2.05;1.40;;;41.20;81.90;;;41.49;33.17;101187.94;4963509;28;20034;-79
2023/08/15 08:05:25;;;;;;;2.88;1.30;;;41.50;79.80;;;41.58;33.20;101189.97;4959585;28;20599;-80
2023/08/15 08:07:54;;;;;;;3.53;1.20;;;41.60;80.20;;;41.80;33.21;101186.22;4949044;28;20034;-80
2023/08/15 08:10:19;;;;;;;2.80;1.60;;;41.90;79.80;;;41.87;33.54;101185.97;4933395;28;20050;-79
2023/08/15 08:12:45;;;;;;;3.35;1.40;;;41.90;81.00;;;41.67;33.13;101184.75;4942943;28;20131;-79
2023/08/15 08:15:11;;;;;;;2.53;1.50;;;41.80;80.20;;;41.52;32.83;101182.72;4946380;28;20034;-80
2023/08/15 08:17:37;;;;;;;3.22;1.60;;;41.80;78.80;;;41.31;33.66;101190.03;4931325;28;20425;-79
2023/08/15 08:20:11;;;;;;;3.28;1.60;;;41.60;79.60;;;40.72;34.26;101168.03;4948078;28;20086;-79
2023/08/15 08:22:37;;;;;;;3.28;1.75;;;41.30;80.00;;;40.81;33.95;101169.22;4920072;28;20055;-80
2023/08/15 08:25:23;;;;;;;6.30;1.58;;;41.00;80.20;;;40.65;34.60;101173.75;4944611;28;20065;-80
2023/08/15 08:27:52;;;;;;;240.60;12.48;;;40.90;80.80;;;39.72;36.65;101152.53;4926208;28;21842;-83
2023/08/15 08:30:23;;;;;;;5.20;1.40;;;40.40;82.40;;;39.64;36.51;101152.97;4947138;28;20054;-84
2023/08/15 08:32:50;;;;;;;4.80;1.52;;;40.10;83.10;;;39.57;37.10;101153.16;4970535;28;20498;-79
2023/08/15 08:35:17;;;;;;;4.35;1.60;;;39.40;80.40;;;38.31;38.33;101131.50;4934807;28;20027;-80
2023/08/15 08:37:49;;;;;;;3.03;1.45;;;39.00;84.30;;;38.35;38.46;101130.75;4955248;28;20517;-80
2023/08/15 08:40:17;;;;;;;3.05;1.60;;;38.90;82.10;;;38.53;36.99;101139.91;4935322;28;20039;-80
2023/08/15 08:42:44;;;;;;;3.42;2.05;;;38.70;83.70;;;38.46;37.21;101153.78;4925059;28;20066;-80
2023/08/15 08:45:22;;;;;;;3.72;1.50;;;38.50;83.80;;;38.14;37.83;101143.31;4919965;28;20046;-80
2023/08/15 08:47:48;;;;;;;85.43;4.72;;;38.20;84.40;;;37.87;39.12;101126.50;4965443;28;20030;-80
2023/08/15 08:50:16;;;;;;;8.63;1.80;;;38.00;85.40;;;37.76;39.67;101141.94;4937996;28;20104;-79
2023/08/15 08:52:49;;;;;;;3.28;1.50;;;37.80;85.10;;;37.64;38.75;101138.38;4914900;28;20070;-79
2023/08/15 08:55:17;;;;;;;6.55;1.70;;;37.50;87.50;;;37.20;40.64;101132.44;4950726;28;20511;-80
2023/08/15 08:57:53;;;;;;;4.80;1.85;;;37.10;89.10;;;36.71;41.84;101126.28;4943241;28;20050;-80
2023/08/15 09:00:29;;;;;;;2.50;1.58;;;36.90;89.00;;;36.63;41.68;101132.09;4948263;28;20679;-79
2023/08/15 09:02:56;;;;;;;2.92;1.80;;;36.70;87.50;;;36.36;41.19;101134.38;4958761;28;20103;-80
2023/08/15 09:05:23;;;;;;;3.53;1.70;;;36.50;87.60;;;35.93;41.58;101125.22;4974456;28;20042;-80
2023/08/15 09:07:57;;;;;;;3.22;1.75;;;36.10;89.40;;;35.64;43.73;101114.00;4928051;28;20046;-80
2023/08/15 09:10:23;;;;;;;3.53;1.63;;;35.90;90.10;;;35.53;43.32;101120.16;4932505;28;20071;-80
2023/08/15 09:12:49;;;;;;;5.47;2.35;;;35.70;90.30;;;35.45;43.49;101113.09;4943727;28;20040;-80
2023/08/15 09:15:18;;;;;;;5.75;2.10;;;35.60;90.70;;;35.29;43.05;101108.22;4949594;28;20038;-80
2023/08/15 09:17:46;;;;;;;4.63;1.73;;;35.60;90.80;;;34.98;43.41;101120.91;4939842;28;20425;-80
2023/08/15 09:20:15;;;;;;;4.15;2.13;;;35.30;91.00;;;34.80;44.43;101112.66;4920713;28;20505;-80
2023/08/15 09:22:57;;;;;;;2.35;1.63;;;35.00;90.10;;;34.47;44.03;101100.00;4963797;28;20093;-80
2023/08/15 09:25:26;;;;;;;4.63;1.90;;;34.70;90.50;;;34.14;44.56;101092.03;4950515;28;20041;-80
2023/08/15 09:27:53;;;;;;;4.82;1.80;;;34.50;90.50;;;33.90;44.46;101087.06;4953801;28;20118;-81
2023/08/15 09:30:21;;;;;;;3.28;1.73;;;34.20;90.70;;;33.52;45.35;101084.25;4937338;28;20497;-80
2023/08/15 09:32:47;;;;;;;8.23;2.28;;;33.90;91.10;;;33.37;45.27;101089.09;4942057;28;20463;-79
2023/08/15 09:35:22;;;;;;;2.15;1.80;;;33.80;91.30;;;33.28;45.95;101077.59;4942637;28;20133;-79
2023/08/15 09:37:52;;;;;;;4.53;2.35;;;33.60;91.60;;;33.23;46.13;101083.69;4937912;28;20045;-79
2023/08/15 09:40:24;;;;;;;4.50;1.95;;;33.60;91.50;;;33.13;45.87;101085.16;4942825;28;20042;-79
2023/08/15 09:42:54;;;;;;;7.65;2.15;;;33.40;91.70;;;32.92;46.04;101089.78;4907688;28;20035;-80
2023/08/15 09:45:20;;;;;;;7.57;2.00;;;33.20;91.70;;;32.69;46.18;101095.66;4951750;28;20657;-79
2023/08/15 09:47:47;;;;;;;5.07;2.10;;;33.10;92.40;;;32.77;46.76;101092.72;4961603;28;20536;-80
2023/08/15 09:50:21;;;;;;;5.28;2.35;;;33.10;93.00;;;33.00;47.07;101102.34;4960549;28;20038;-79
2023/08/15 09:52:47;;;;;;;3.38;2.28;;;33.20;92.90;;;33.06;47.32;101109.69;4950156;28;20528;-80
2023/08/15 09:55:16;;;;;;;9.57;2.10;;;33.30;93.90;;;33.16;47.33;101112.88;4957576;28;20045;-80
2023/08/15 09:57:50;;;;;;;2.95;2.00;;;33.30;92.90;;;33.08;47.24;101119.38;4962390;28;20073;-80
2023/08/15 10:00:18;;;;;;;4.45;2.13;;;33.30;93.00;;;32.99;47.26;101117.06;4945290;28;20646;-79
2023/08/15 10:03:07;;;;;;;6.55;2.35;;;33.20;93.20;;;33.00;47.43;101107.81;4953766;28;20065;-80
2023/08/15 10:05:36;;;;;;;4.43;1.90;;;33.20;93.20;;;33.18;47.17;101108.06;4974703;28;20046;-80
2023/08/15 10:08:12;;;;;;;3.83;2.10;;;33.40;94.00;;;33.51;47.33;101121.63;4948679;28;20037;-80
2023/08/15 10:10:39;;;;;;;;;;;33.40;93.90;;;33.85;47.09;101127.03;4963803;28;20031;-80
2023/08/15 10:13:08;;;;;;;7.38;2.30;;;33.90;92.60;;;33.91;45.45;101123.44;4957565;28;19918;-80
2023/08/15 10:15:41;;;;;;;5.85;2.20;;;33.90;91.90;;;33.82;45.62;101120.09;4959549;28;20046;-80